Time;durP1;ratioP1;P1;durP2;ratioP2;P2;SDS_P1;SDS_P2;PMS_P1;PMS_P2;Temp;Humidity;BMP_temperature;BMP_pressure;BME280_temperature;BME280_humidity;BME280_pressure;Samples;Min_cycle;Max_cycle;Signal;HPM_P1;HPM_P2
2021/03/30 00:01:23;;;;;;;;;;;;;;;27.50;19.51;101941.28;5099596;28;760;-35
2021/03/30 00:03:48;;;;;;;;;;;;;;;27.14;19.95;101940.31;5099394;28;811;-37
2021/03/30 00:06:14;;;;;;;;;;;;;;;27.06;19.75;101934.81;5080745;28;1979;-35
2021/03/30 00:08:39;;;;;;;;;;;;;;;27.32;19.99;101936.78;5099200;28;895;-36
2021/03/30 00:11:04;;;;;;;;;;;;;;;27.53;19.70;101937.44;5099160;28;764;-39
2021/03/30 00:13:30;;;;;;;;;;;;;;;27.28;19.40;101924.56;5099237;28;807;-37
2021/03/30 00:15:55;;;;;;;;;;;;;;;27.17;19.92;101936.47;5099479;28;831;-38
2021/03/30 00:18:20;;;;;;;;;;;;;;;27.28;20.39;101935.38;5099185;28;760;-36
2021/03/30 00:20:45;;;;;;;;;;;;;;;27.57;19.98;101936.09;5099112;28;803;-37
2021/03/30 00:23:11;;;;;;;;;;;;;;;27.66;19.95;101929.75;5080849;28;994;-41
2021/03/30 00:25:36;;;;;;;;;;;;;;;27.33;20.40;101933.06;5098471;28;829;-42
2021/03/30 00:28:01;;;;;;;;;;;;;;;27.39;20.39;101928.88;5099042;28;1909;-40
2021/03/30 00:30:27;;;;;;;;;;;;;;;27.52;20.25;101931.19;5099055;28;755;-36
2021/03/30 00:32:52;;;;;;;;;;;;;;;27.76;19.89;101926.97;5098628;28;820;-33
2021/03/30 00:35:17;;;;;;;;;;;;;;;27.81;19.88;101927.34;5099328;28;756;-33
2021/03/30 00:37:43;;;;;;;;;;;;;;;27.48;20.14;101919.84;5099320;28;958;-35
2021/03/30 00:40:08;;;;;;;;;;;;;;;27.51;20.18;101919.50;5098333;28;811;-34
2021/03/30 00:42:34;;;;;;;;;;;;;;;27.69;20.14;101921.38;5098824;28;1072;-34
2021/03/30 00:44:59;;;;;;;;;;;;;;;27.84;19.94;101924.31;5099150;28;767;-35
2021/03/30 00:47:25;;;;;;;;;;;;;;;27.60;20.18;101920.44;5098222;28;1968;-42
2021/03/30 00:49:50;;;;;;;;;;;;;;;27.49;20.51;101918.81;5080659;28;744;-35
2021/03/30 00:52:16;;;;;;;;;;;;;;;27.54;20.34;101925.63;5098631;28;1017;-34
2021/03/30 00:54:41;;;;;;;;;;;;;;;27.87;20.25;101926.72;5097836;28;890;-35
2021/03/30 00:57:06;;;;;;;;;;;;;;;27.82;19.88;101928.19;5097556;28;817;-36
2021/03/30 00:59:32;;;;;;;;;;;;;;;27.59;20.11;101928.69;5080403;28;779;-35
2021/03/30 01:01:57;;;;;;;;;;;;;;;27.49;20.48;101929.63;5097965;28;762;-43
2021/03/30 01:04:23;;;;;;;;;;;;;;;27.81;20.07;101929.22;5098737;28;835;-36
2021/03/30 01:06:48;;;;;;;;;;;;;;;27.97;19.98;101923.91;5098881;28;1906;-37
2021/03/30 01:09:32;;;;;;;;;;;;;;;27.66;20.20;101924.34;5079521;28;1058;-33
2021/03/30 01:12:09;;;;;;;;;;;;;;;27.62;20.48;101926.53;5098430;28;752;-36
2021/03/30 01:14:37;;;;;;;;;;;;;;;27.73;20.29;101927.28;5098161;28;752;-37
2021/03/30 01:17:21;;;;;;;;;;;;;;;27.89;20.11;101931.97;5097819;28;887;-37
2021/03/30 01:20:03;;;;;;;;;;;;;;;27.61;20.39;101930.22;5097784;28;815;-37
2021/03/30 01:22:43;;;;;;;;;;;;;;;27.49;20.41;101924.22;5098337;28;997;-37
2021/03/30 01:25:09;;;;;;;;;;;;;;;27.81;20.19;101926.53;5097753;28;883;-37
2021/03/30 01:27:52;;;;;;;;;;;;;;;27.98;20.14;101916.63;5097596;28;1901;-42
2021/03/30 01:30:18;;;;;;;;;;;;;;;27.86;20.27;101925.00;5097836;28;795;-36
2021/03/30 01:32:48;;;;;;;;;;;;;;;27.72;20.42;101920.19;5097980;28;767;-37
2021/03/30 01:35:13;;;;;;;;;;;;;;;27.86;20.33;101929.59;5097763;28;744;-40
2021/03/30 01:37:43;;;;;;;;;;;;;;;28.03;20.30;101917.00;5080127;28;947;-39
2021/03/30 01:40:08;;;;;;;;;;;;;;;27.85;19.99;101919.78;5079254;28;931;-42
2021/03/30 01:42:34;;;;;;;;;;;;;;;27.69;20.42;101917.81;5097390;28;1227;-35
2021/03/30 01:44:59;;;;;;;;;;;;;;;27.70;20.50;101920.38;5078905;28;857;-42
2021/03/30 01:47:25;;;;;;;;;;;;;;;27.98;20.30;101922.03;5079319;28;1910;-40
2021/03/30 01:49:50;;;;;;;;;;;;;;;28.13;19.88;101922.28;5079320;28;736;-36
2021/03/30 01:52:17;;;;;;;;;;;;;;;27.77;20.18;101914.31;5097980;28;1025;-36
2021/03/30 01:54:42;;;;;;;;;;;;;;;27.74;20.11;101918.19;5079515;28;776;-35
2021/03/30 01:57:07;;;;;;;;;;;;;;;27.91;20.26;101913.72;5079519;28;732;-37
2021/03/30 01:59:33;;;;;;;;;;;;;;;28.05;20.25;101917.69;5097020;28;808;-36
2021/03/30 02:01:59;;;;;;;;;;;;;;;27.82;20.23;101917.38;5079121;28;748;-39
2021/03/30 02:04:24;;;;;;;;;;;;;;;27.69;20.42;101912.41;5079461;28;781;-37
2021/03/30 02:06:49;;;;;;;;;;;;;;;27.61;20.64;101910.47;5097615;28;1909;-36
2021/03/30 02:09:22;;;;;;;;;;;;;;;27.91;20.28;101904.78;5078870;28;716;-34
2021/03/30 02:11:53;;;;;;;;;;;;;;;27.86;20.37;101906.09;5096919;28;792;-43
2021/03/30 02:14:18;;;;;;;;;;;;;;;27.65;20.44;101914.53;5096890;28;819;-36
2021/03/30 02:16:54;;;;;;;;;;;;;;;27.67;20.63;101907.13;5078771;28;759;-37
2021/03/30 02:19:20;;;;;;;;;;;;;;;27.95;20.36;101908.84;5097407;28;818;-41
2021/03/30 02:21:52;;;;;;;;;;;;;;;28.09;20.44;101910.94;5079550;28;1025;-37
2021/03/30 02:24:17;;;;;;;;;;;;;;;27.70;20.77;101922.22;5078801;28;756;-35
2021/03/30 02:26:43;;;;;;;;;;;;;;;27.81;20.24;101913.00;5078983;28;1902;-38
2021/03/30 02:29:09;;;;;;;;;;;;;;;27.90;20.44;101917.44;5078777;28;808;-41
2021/03/30 02:31:34;;;;;;;;;;;;;;;28.06;20.40;101913.97;5078462;28;733;-41
2021/03/30 02:34:00;;;;;;;;;;;;;;;27.90;20.16;101922.00;5097036;28;831;-36
2021/03/30 02:36:26;;;;;;;;;;;;;;;27.53;20.45;101932.03;5097371;28;962;-38
2021/03/30 02:38:52;;;;;;;;;;;;;;;27.63;20.72;101921.97;5096382;28;732;-36
2021/03/30 02:41:17;;;;;;;;;;;;;;;27.78;20.70;101916.84;5096849;28;743;-42
2021/03/30 02:43:42;;;;;;;;;;;;;;;27.63;20.57;101922.81;5078237;28;1291;-41
2021/03/30 02:46:08;;;;;;;;;;;;;;;27.13;21.26;101916.16;5078069;28;1918;-41
2021/03/30 02:48:34;;;;;;;;;;;;;;;27.02;21.16;101919.94;5096887;28;732;-35
2021/03/30 02:51:01;;;;;;;;;;;;;;;27.60;20.82;101922.28;5078774;28;962;-36
2021/03/30 02:53:26;;;;;;;;;;;;;;;27.63;20.74;101922.81;5078571;28;835;-41
2021/03/30 02:55:51;;;;;;;;;;;;;;;27.15;21.29;101911.44;5097102;28;808;-44
2021/03/30 02:58:17;;;;;;;;;;;;;;;27.13;21.29;101916.16;5078527;28;752;-42
2021/03/30 03:00:43;;;;;;;;;;;;;;;27.31;21.21;101920.72;5077963;28;781;-42
2021/03/30 03:03:09;;;;;;;;;;;;;;;27.61;20.83;101924.81;5096752;28;828;-40
2021/03/30 03:05:34;;;;;;;;;;;;;;;25.60;19.13;101917.22;5096448;28;791;-34
2021/03/30 03:07:59;;;;;;;;;;;;;;;21.21;22.71;101911.28;5094380;28;1972;-35
2021/03/30 03:10:25;;;;;;;;;;;;;;;19.66;24.73;101917.56;5098810;28;815;-34
2021/03/30 03:12:50;;;;;;;;;;;;;;;20.40;23.70;101915.25;5098622;28;732;-35
2021/03/30 03:15:16;;;;;;;;;;;;;;;19.64;24.33;101914.13;5116685;28;813;-35
2021/03/30 03:17:41;;;;;;;;;;;;;;;19.33;25.21;101914.34;5098698;28;822;-34
2021/03/30 03:20:07;;;;;;;;;;;;;;;20.48;23.64;101920.03;5100804;28;787;-36
2021/03/30 03:22:32;;;;;;;;;;;;;;;20.99;22.82;101926.25;5119116;28;945;-42
2021/03/30 03:24:57;;;;;;;;;;;;;;;20.50;23.37;101923.47;5102439;28;1281;-34
2021/03/30 03:27:23;;;;;;;;;;;;;;;20.64;23.62;101944.72;5102420;28;1971;-41
2021/03/30 03:29:48;;;;;;;;;;;;;;;20.53;23.23;101942.81;5120373;28;847;-36
2021/03/30 03:32:13;;;;;;;;;;;;;;;21.12;22.92;101944.94;5120586;28;758;-35
2021/03/30 03:34:38;;;;;;;;;;;;;;;20.45;23.48;101950.53;5120616;28;843;-34
2021/03/30 03:37:04;;;;;;;;;;;;;;;20.13;24.03;101948.28;5118941;28;958;-33
2021/03/30 03:39:29;;;;;;;;;;;;;;;21.05;23.10;101957.91;5120307;28;857;-33
2021/03/30 03:41:54;;;;;;;;;;;;;;;21.13;22.75;101950.19;5120609;28;1229;-37
2021/03/30 03:44:20;;;;;;;;;;;;;;;21.23;22.48;101952.16;5120573;28;834;-36
2021/03/30 03:46:49;;;;;;;;;;;;;;;20.89;22.82;101939.41;5120324;28;1977;-32
2021/03/30 03:49:14;;;;;;;;;;;;;;;20.37;23.75;101943.03;5120271;28;802;-35
2021/03/30 03:51:41;;;;;;;;;;;;;;;20.41;23.50;101949.03;5113330;28;965;-36
2021/03/30 03:54:07;;;;;;;;;;;;;;;20.55;23.33;101942.72;5099440;28;855;-37
2021/03/30 03:56:34;;;;;;;;;;;;;;;20.13;24.41;101941.13;5081919;28;786;-37
2021/03/30 03:59:00;;;;;;;;;;;;;;;22.07;22.83;101951.25;5081930;28;814;-39
2021/03/30 04:01:29;;;;;;;;;;;;;;;24.43;20.29;101953.59;5081125;28;841;-32
2021/03/30 04:03:59;;;;;;;;;;;;;;;25.45;19.47;101952.69;5081772;28;792;-35
2021/03/30 04:06:30;;;;;;;;;;;;;;;25.51;19.73;101953.94;5081755;28;1971;-36
2021/03/30 04:08:55;;;;;;;;;;;;;;;25.29;20.38;101953.28;5081387;28;784;-39
2021/03/30 04:11:21;;;;;;;;;;;;;;;25.47;20.25;101953.41;5099756;28;736;-38
2021/03/30 04:13:46;;;;;;;;;;;;;;;26.07;19.75;101959.59;5080703;28;975;-36
2021/03/30 04:16:11;;;;;;;;;;;;;;;25.22;19.96;101958.38;5081083;28;515;-37
2021/03/30 04:18:38;;;;;;;;;;;;;;;24.68;20.99;101955.94;5099451;28;820;-36
2021/03/30 04:21:04;;;;;;;;;;;;;;;25.30;20.69;101968.44;5099380;28;1025;-35
2021/03/30 04:23:29;;;;;;;;;;;;;;;25.38;21.00;101954.25;5099299;28;779;-35
2021/03/30 04:25:55;;;;;;;;;;;;;;;25.38;21.24;101965.00;5099181;28;780;-35
2021/03/30 04:28:20;;;;;;;;;;;;;;;25.53;21.16;101954.66;5098956;28;1964;-37
2021/03/30 04:30:45;;;;;;;;;;;;;;;25.90;20.97;101964.72;5098616;28;772;-30
2021/03/30 04:33:10;;;;;;;;;;;;;;;25.97;21.40;101966.84;5099085;28;756;-35
2021/03/30 04:35:36;;;;;;;;;;;;;;;25.84;21.89;101959.91;5099314;28;839;-36
2021/03/30 04:38:01;;;;;;;;;;;;;;;25.88;21.86;101964.00;5099350;28;946;-37
2021/03/30 04:40:26;;;;;;;;;;;;;;;26.09;21.57;101968.34;5098608;28;812;-37
2021/03/30 04:42:51;;;;;;;;;;;;;;;26.25;21.44;101967.75;5098845;28;1292;-36
2021/03/30 04:45:17;;;;;;;;;;;;;;;26.11;22.04;101977.16;5098604;28;803;-38
2021/03/30 04:47:42;;;;;;;;;;;;;;;26.00;22.03;101970.09;5098284;28;1918;-41
2021/03/30 04:50:07;;;;;;;;;;;;;;;26.16;22.13;101979.41;5098726;28;767;-35
2021/03/30 04:52:33;;;;;;;;;;;;;;;26.32;21.88;101976.09;5099159;28;962;-39
2021/03/30 04:54:58;;;;;;;;;;;;;;;26.04;22.14;101976.88;5098159;28;827;-37
2021/03/30 04:57:23;;;;;;;;;;;;;;;26.13;22.27;101975.16;5098901;28;764;-42
2021/03/30 04:59:49;;;;;;;;;;;;;;;26.40;22.15;101981.66;5098207;28;724;-37
2021/03/30 05:02:14;;;;;;;;;;;;;;;26.57;22.04;101983.69;5097462;28;914;-35
2021/03/30 05:04:39;;;;;;;;;;;;;;;26.22;22.25;101983.38;5098051;28;820;-34
2021/03/30 05:07:04;;;;;;;;;;;;;;;26.08;22.64;101995.47;5098312;28;1959;-42
2021/03/30 05:09:30;;;;;;;;;;;;;;;26.12;22.62;101989.66;5098440;28;871;-36
2021/03/30 05:11:55;;;;;;;;;;;;;;;26.66;22.01;101993.59;5117927;28;808;-38
2021/03/30 05:14:20;;;;;;;;;;;;;;;26.64;21.90;101982.94;5118288;28;911;-39
2021/03/30 05:16:46;;;;;;;;;;;;;;;26.20;22.50;101993.44;5118575;28;799;-39
2021/03/30 05:19:11;;;;;;;;;;;;;;;26.19;22.96;101992.63;5118102;28;907;-39
2021/03/30 05:21:36;;;;;;;;;;;;;;;26.73;22.23;101992.00;5116351;28;1009;-33
2021/03/30 05:24:02;;;;;;;;;;;;;;;26.88;22.23;102003.13;5100595;28;858;-39
2021/03/30 05:26:27;;;;;;;;;;;;;;;26.57;22.32;102003.44;5097759;28;1969;-39
2021/03/30 05:28:52;;;;;;;;;;;;;;;26.50;22.73;102005.88;5096731;28;1408;-39
2021/03/30 05:31:18;;;;;;;;;;;;;;;26.67;22.41;102000.69;5097587;28;812;-39
2021/03/30 05:33:43;;;;;;;;;;;;;;;27.04;22.38;101992.72;5096512;28;850;-41
2021/03/30 05:36:09;;;;;;;;;;;;;;;26.98;22.28;101989.56;5097786;28;993;-41
2021/03/30 05:38:34;;;;;;;;;;;;;;;26.60;22.66;101994.19;5097091;28;767;-40
2021/03/30 05:41:01;;;;;;;;;;;;;;;26.36;22.73;101995.59;5097722;28;783;-40
2021/03/30 05:43:27;;;;;;;;;;;;;;;26.93;22.42;101986.47;5096554;28;1106;-36
2021/03/30 05:45:52;;;;;;;;;;;;;;;27.13;22.27;102000.75;5079701;28;810;-43
2021/03/30 05:48:17;;;;;;;;;;;;;;;26.87;22.32;101996.06;5097579;28;1905;-41
2021/03/30 05:50:43;;;;;;;;;;;;;;;26.78;22.57;101996.94;5078261;28;825;-41
2021/03/30 05:53:09;;;;;;;;;;;;;;;27.04;22.51;101998.97;5097801;28;958;-38
2021/03/30 05:55:36;;;;;;;;;;;;;;;27.26;21.94;102007.59;5097503;28;740;-38
2021/03/30 05:58:02;;;;;;;;;;;;;;;27.26;21.98;102005.75;5097054;28;812;-41
2021/03/30 06:00:37;;;;;;;;;;;;;;;26.87;22.50;101998.75;5096968;28;808;-39
2021/03/30 06:03:03;;;;;;;;;;;;;;;26.89;22.12;102004.81;5097272;28;791;-38
2021/03/30 06:05:28;;;;;;;;;;;;;;;27.04;22.46;101995.41;5096984;28;767;-36
2021/03/30 06:07:53;;;;;;;;;;;;;;;27.30;21.88;101994.66;5112780;28;1909;-40
2021/03/30 06:10:20;;;;;;;;;;;;;;;26.94;22.40;101993.59;5117276;28;829;-41
2021/03/30 06:12:45;;;;;;;;;;;;;;;26.85;22.44;101981.00;5117583;28;748;-40
2021/03/30 06:15:11;;;;;;;;;;;;;;;27.23;22.19;102002.50;5117591;28;770;-43
2021/03/30 06:17:47;;;;;;;;;;;;;;;27.51;21.82;102003.28;5117302;28;827;-45
2021/03/30 06:20:25;;;;;;;;;;;;;;;27.04;21.84;101990.00;5117108;28;847;-42
2021/03/30 06:22:52;;;;;;;;;;;;;;;27.12;22.29;102000.91;5095444;28;970;-42
2021/03/30 06:25:56;;;;;;;;;;;;;;;27.42;21.78;101995.28;5096773;28;783;-36
2021/03/30 06:28:21;;;;;;;;;;;;;;;27.16;21.89;102009.56;5054006;28;1902;-49
2021/03/30 06:30:56;;;;;;;;;;;;;;;26.98;22.39;102000.38;5088788;28;887;-37
2021/03/30 06:33:22;;;;;;;;;;;;;;;27.32;22.02;102006.16;5096938;28;895;-33
2021/03/30 06:35:47;;;;;;;;;;;;;;;27.47;21.75;102015.44;5096998;28;801;-39
2021/03/30 06:38:12;;;;;;;;;;;;;;;26.88;22.38;102010.38;5114969;28;985;-39
2021/03/30 06:40:40;;;;;;;;;;;;;;;26.76;22.47;102015.13;5117239;28;756;-42
2021/03/30 06:46:05;;;;;;;;;;;;;;;26.95;22.06;102019.59;5116961;28;636;-41
2021/03/30 06:48:30;;;;;;;;;;;;;;;26.74;22.64;102015.28;5117186;28;1970;-33
2021/03/30 06:50:56;;;;;;;;;;;;;;;26.91;22.32;102012.78;5097873;28;985;-42
2021/03/30 06:53:21;;;;;;;;;;;;;;;27.19;22.19;102014.66;5116603;28;926;-31
2021/03/30 06:55:50;;;;;;;;;;;;;;;26.85;22.51;102022.34;5119609;28;814;-42
2021/03/30 06:58:17;;;;;;;;;;;;;;;26.60;22.68;102026.56;5120904;28;771;-36
2021/03/30 07:00:42;;;;;;;;;;;;;;;27.01;22.51;102012.72;5121288;28;774;-34
2021/03/30 07:03:08;;;;;;;;;;;;;;;26.97;22.31;102016.72;5102758;28;1418;-40
2021/03/30 07:05:34;;;;;;;;;;;;;;;26.88;22.46;102013.94;5121078;28;751;-41
2021/03/30 07:08:03;;;;;;;;;;;;;;;27.02;22.64;102015.31;5119630;28;1874;-33
2021/03/30 07:10:29;;;;;;;;;;;;;;;27.30;22.07;102019.81;5102144;28;988;-41
2021/03/30 07:12:54;;;;;;;;;;;;;;;27.17;22.35;102022.03;5121235;28;870;-30
2021/03/30 07:15:20;;;;;;;;;;;;;;;27.06;22.25;102021.25;5121009;28;743;-32
2021/03/30 07:18:24;;;;;;;;;;;;;;;27.08;22.37;102019.25;5121065;28;755;-32
2021/03/30 07:20:52;;;;;;;;;;;;;;;27.16;22.64;102023.06;5057662;28;1175;-36
2021/03/30 07:23:21;;;;;;;;;;;;;;;26.88;23.00;102023.88;5038632;28;995;-41
2021/03/30 07:25:49;;;;;;;;;;;;;;;26.76;22.85;102029.47;5065927;28;1523;-38
2021/03/30 07:28:17;;;;;;;;;;;;;;;26.81;22.74;102037.13;5081572;28;1897;-36
2021/03/30 07:30:42;;;;;;;;;;;;;;;26.88;22.97;102040.94;5100181;28;739;-37
2021/03/30 07:33:08;;;;;;;;;;;;;;;27.23;22.74;102035.78;5099949;28;886;-38
2021/03/30 07:35:35;;;;;;;;;;;;;;;27.65;22.30;102030.78;5099937;28;763;-37
2021/03/30 07:38:06;;;;;;;;;;;;;;;27.71;22.05;102030.19;5117950;28;989;-38
2021/03/30 07:40:31;;;;;;;;;;;;;;;27.12;22.38;102033.31;5102016;28;734;-38
2021/03/30 07:42:57;;;;;;;;;;;;;;;26.78;22.63;102038.28;5119994;28;1133;-34
2021/03/30 07:45:23;;;;;;;;;;;;;;;26.83;22.86;102035.13;5120103;28;776;-36
2021/03/30 07:47:48;;;;;;;;;;;;;;;26.67;23.25;102034.94;5120270;28;1910;-34
2021/03/30 07:50:15;;;;;;;;;;;;;;;26.75;22.97;102033.19;5119621;28;741;-40
2021/03/30 07:52:42;;;;;;;;;;;;;;;26.71;22.90;102037.19;5118576;28;1013;-36
2021/03/30 07:55:17;;;;;;;;;;;;;;;26.59;23.17;102030.28;5080268;28;864;-42
2021/03/30 07:58:00;;;;;;;;;;;;;;;26.62;22.98;102032.69;5099460;28;824;-36
2021/03/30 08:00:31;;;;;;;;;;;;;;;26.56;23.28;102041.38;5099130;28;805;-36
2021/03/30 08:03:00;;;;;;;;;;;;;;;27.03;22.82;102037.75;5099691;28;837;-40
2021/03/30 08:05:28;;;;;;;;;;;;;;;26.72;22.88;102030.78;5098773;28;830;-40
2021/03/30 08:07:54;;;;;;;;;;;;;;;26.83;22.85;102032.44;5115021;28;1964;-39
2021/03/30 08:10:39;;;;;;;;;;;;;;;26.92;23.10;102036.09;5119548;28;762;-38
2021/03/30 08:13:23;;;;;;;;;;;;;;;27.10;22.62;102041.56;5118567;28;1629;-35
2021/03/30 08:16:07;;;;;;;;;;;;;;;27.10;22.56;102040.72;5119391;28;819;-40
2021/03/30 08:18:33;;;;;;;;;;;;;;;27.07;22.95;102032.91;5119518;28;842;-46
2021/03/30 08:20:59;;;;;;;;;;;;;;;27.46;22.44;102037.22;5118294;28;981;-28
2021/03/30 08:23:25;;;;;;;;;;;;;;;26.87;23.00;102036.56;5099533;28;829;-35
2021/03/30 08:25:52;;;;;;;;;;;;;;;26.90;22.68;102043.50;5097033;28;851;-35
2021/03/30 08:28:36;;;;;;;;;;;;;;;26.86;22.82;102040.22;5098526;28;1902;-42
2021/03/30 08:31:01;;;;;;;;;;;;;;;26.95;22.78;102034.94;5098786;28;779;-34
2021/03/30 08:33:32;;;;;;;;;;;;;;;26.76;22.97;102047.53;5098819;28;850;-41
2021/03/30 08:36:13;;;;;;;;;;;;;;;26.69;22.81;102046.44;5099241;28;958;-39
2021/03/30 08:38:46;;;;;;;;;;;;;;;26.67;23.11;102040.31;5119535;28;727;-45
2021/03/30 08:41:12;;;;;;;;;;;;;;;26.71;23.05;102041.75;5119497;28;829;-37
2021/03/30 08:43:37;;;;;;;;;;;;;;;26.69;23.25;102039.19;5119334;28;1301;-34
2021/03/30 08:46:06;;;;;;;;;;;;;;;26.90;22.83;102038.94;5118832;28;824;-37
2021/03/30 08:48:33;;;;;;;;;;;;;;;26.92;23.05;102041.50;5118618;28;1945;-37
2021/03/30 08:50:58;;;;;;;;;;;;;;;26.90;23.14;102036.25;5117772;28;1452;-38
2021/03/30 08:53:23;;;;;;;;;;;;;;;27.09;22.75;102044.41;5100942;28;939;-41
2021/03/30 08:55:49;;;;;;;;;;;;;;;27.08;22.72;102040.00;5118691;28;759;-40
2021/03/30 08:58:14;;;;;;;;;;;;;;;26.89;22.99;102042.63;5100725;28;787;-37
2021/03/30 09:00:39;;;;;;;;;;;;;;;27.01;23.15;102046.00;5118909;28;794;-41
2021/03/30 09:03:05;;;;;;;;;;;;;;;27.18;23.06;102038.09;5118444;28;898;-40
2021/03/30 09:05:37;;;;;;;;;;;;;;;27.17;22.72;102031.00;5118769;28;747;-42
2021/03/30 09:08:03;;;;;;;;;;;;;;;27.23;23.04;102019.59;5116932;28;1956;-39
2021/03/30 09:10:28;;;;;;;;;;;;;;;27.08;23.25;102023.78;5117938;28;787;-35
2021/03/30 09:13:12;;;;;;;;;;;;;;;27.08;23.12;102031.91;5099194;28;800;-36
2021/03/30 09:15:38;;;;;;;;;;;;;;;27.03;22.96;102032.34;5097742;28;812;-34
2021/03/30 09:18:03;;;;;;;;;;;;;;;26.92;23.08;102021.72;5097227;28;727;-35
2021/03/30 09:20:30;;;;;;;;;;;;;;;26.90;23.12;102036.25;5098131;28;787;-34
2021/03/30 09:22:57;;;;;;;;;;;;;;;26.85;23.13;102025.03;5098882;28;1016;-33
2021/03/30 09:25:40;;;;;;;;;;;;;;;26.91;23.22;102023.56;5097872;28;743;-35
2021/03/30 09:28:05;;;;;;;;;;;;;;;26.95;23.16;102013.31;5097720;28;1958;-33
2021/03/30 09:30:30;;;;;;;;;;;;;;;27.02;22.97;102009.06;5079146;28;1286;-36
2021/03/30 09:32:56;;;;;;;;;;;;;;;26.86;23.03;102010.53;5097875;28;762;-36
2021/03/30 09:35:25;;;;;;;;;;;;;;;26.84;23.43;102014.41;5078945;28;803;-34
2021/03/30 09:37:58;;;;;;;;;;;;;;;26.75;23.18;102000.81;5114809;28;871;-32
2021/03/30 09:40:24;;;;;;;;;;;;;;;26.87;23.21;102006.84;5117280;28;816;-35
2021/03/30 09:42:50;;;;;;;;;;;;;;;26.89;23.29;102001.31;5117574;28;1023;-35
2021/03/30 09:45:20;;;;;;;;;;;;;;;26.84;23.18;101999.03;5117943;28;747;-35
2021/03/30 09:47:45;;;;;;;;;;;;;;;26.75;23.24;101992.69;5117367;28;1910;-35
2021/03/30 09:50:11;;;;;;;;;;;;;;;26.78;22.98;102000.50;5117280;28;810;-36
2021/03/30 09:52:37;;;;;;;;;;;;;;;26.76;22.33;101997.09;5116724;28;949;-35
2021/03/30 09:55:06;;;;;;;;;;;;;;;26.43;20.94;101998.50;5099365;28;1076;-35
2021/03/30 09:57:31;;;;;;;;;;;;;;;26.46;22.35;101990.16;5117738;28;747;-35
2021/03/30 09:59:57;;;;;;;;;;;;;;;26.89;22.38;101983.22;5117309;28;819;-35
2021/03/30 10:02:32;;;;;;;;;;;;;;;26.95;22.45;101989.88;5117797;28;739;-35
2021/03/30 10:04:58;;;;;;;;;;;;;;;26.78;22.55;101994.25;5117384;28;747;-35
2021/03/30 10:07:24;;;;;;;;;;;;;;;26.56;22.93;101988.22;5116375;28;1905;-35
2021/03/30 10:09:59;;;;;;;;;;;;;;;26.44;23.17;102001.09;5117269;28;805;-35
2021/03/30 10:12:30;;;;;;;;;;;;;;;26.37;23.18;101992.72;5117158;28;992;-35
2021/03/30 10:14:56;;;;;;;;;;;;;;;26.39;23.22;101987.19;5117545;28;815;-35
2021/03/30 10:17:21;;;;;;;;;;;;;;;26.36;23.26;101980.22;5116896;28;868;-34
2021/03/30 10:19:47;;;;;;;;;;;;;;;26.35;23.16;101993.88;5098591;28;1105;-35
2021/03/30 10:22:33;;;;;;;;;;;;;;;26.58;22.73;102004.28;5098041;28;1285;-35
2021/03/30 10:25:10;;;;;;;;;;;;;;;26.50;23.00;101996.94;5117208;28;751;-35
2021/03/30 10:27:36;;;;;;;;;;;;;;;26.46;22.89;101990.97;5098671;28;1905;-35
2021/03/30 10:30:02;;;;;;;;;;;;;;;26.44;22.90;101990.28;5116757;28;850;-35
2021/03/30 10:32:32;;;;;;;;;;;;;;;26.59;22.89;101992.50;5116622;28;739;-35
2021/03/30 10:34:57;;;;;;;;;;;;;;;26.45;23.10;101991.97;5117327;28;826;-35
2021/03/30 10:37:23;;;;;;;;;;;;;;;26.42;22.99;101992.28;5097487;28;1379;-35
2021/03/30 10:39:48;;;;;;;;;;;;;;;26.56;23.17;101995.50;5098757;28;1134;-35
2021/03/30 10:42:15;;;;;;;;;;;;;;;26.48;22.05;101999.78;5117264;28;1102;-39
2021/03/30 10:44:44;;;;;;;;;;;;;;;25.90;21.58;101990.81;5117593;28;786;-41
2021/03/30 10:47:13;;;;;;;;;;;;;;;25.75;21.34;101990.41;5116450;28;1972;-38
2021/03/30 10:49:39;;;;;;;;;;;;;;;25.75;21.63;101991.28;5116847;28;1510;-39
2021/03/30 10:52:05;;;;;;;;;;;;;;;25.68;21.82;101991.00;5115250;28;921;-37
2021/03/30 10:54:30;;;;;;;;;;;;;;;25.65;19.39;101977.81;5116529;28;845;-38
2021/03/30 10:56:55;;;;;;;;;;;;;;;25.87;21.30;101974.94;5104828;28;1109;-38
2021/03/30 10:59:21;;;;;;;;;;;;;;;25.70;21.33;101966.59;5096206;28;849;-40
2021/03/30 11:01:46;;;;;;;;;;;;;;;25.71;20.47;101973.69;5096341;28;739;-37
2021/03/30 11:04:11;;;;;;;;;;;;;;;25.53;18.99;101971.69;5095396;28;870;-37
2021/03/30 11:06:37;;;;;;;;;;;;;;;25.62;19.99;101970.00;5115435;28;1957;-41
2021/03/30 11:09:02;;;;;;;;;;;;;;;25.49;19.13;101972.13;5086256;28;1118;-40
2021/03/30 11:11:27;;;;;;;;;;;;;;;25.37;18.41;101974.09;5096204;28;806;-37
2021/03/30 11:13:53;;;;;;;;;;;;;;;25.43;19.02;101970.84;5094734;28;813;-37
2021/03/30 11:16:18;;;;;;;;;;;;;;;25.16;17.96;101978.63;5095804;28;1182;-36
2021/03/30 11:18:43;;;;;;;;;;;;;;;24.93;18.24;101972.63;5078221;28;806;-39
2021/03/30 11:21:09;;;;;;;;;;;;;;;24.78;18.30;101972.97;5096753;28;922;-39
2021/03/30 11:23:35;;;;;;;;;;;;;;;25.22;20.17;101971.84;5095770;28;850;-37
2021/03/30 11:26:00;;;;;;;;;;;;;;;25.22;18.67;101946.72;5096214;28;778;-38
2021/03/30 11:28:29;;;;;;;;;;;;;;;25.17;18.77;101964.16;5096221;28;1886;-37
2021/03/30 11:31:02;;;;;;;;;;;;;;;25.37;20.34;101968.72;5096159;28;826;-39
2021/03/30 11:33:30;;;;;;;;;;;;;;;25.19;18.37;101953.25;5096014;28;874;-40
2021/03/30 11:36:01;;;;;;;;;;;;;;;24.96;18.43;101960.75;5096405;28;982;-39
2021/03/30 11:38:26;;;;;;;;;;;;;;;25.03;18.94;101967.25;5116262;28;798;-41
2021/03/30 11:40:52;;;;;;;;;;;;;;;24.70;17.91;101967.44;5118137;28;773;-38
2021/03/30 11:43:17;;;;;;;;;;;;;;;24.56;18.01;101957.88;5119924;28;1058;-41
2021/03/30 11:45:43;;;;;;;;;;;;;;;24.51;18.46;101963.69;5119859;28;815;-33
2021/03/30 11:48:08;;;;;;;;;;;;;;;25.60;21.04;101979.19;5120671;28;1914;-38
2021/03/30 11:50:34;;;;;;;;;;;;;;;26.02;21.91;101978.03;5120057;28;789;-42
2021/03/30 11:52:59;;;;;;;;;;;;;;;25.91;21.50;101974.50;5102137;28;969;-45
2021/03/30 11:55:24;;;;;;;;;;;;;;;25.89;22.03;101979.19;5100182;28;855;-43
2021/03/30 11:57:50;;;;;;;;;;;;;;;26.30;21.92;101975.41;5098991;28;803;-43
2021/03/30 12:00:15;;;;;;;;;;;;;;;26.66;21.56;101980.09;5099034;28;811;-39
2021/03/30 12:02:41;;;;;;;;;;;;;;;26.36;21.92;101964.03;5099972;28;766;-37
2021/03/30 12:05:06;;;;;;;;;;;;;;;26.76;21.96;101958.44;5099071;28;731;-41
2021/03/30 12:07:32;;;;;;;;;;;;;;;26.74;21.98;101968.56;5099675;28;1910;-41
2021/03/30 12:09:57;;;;;;;;;;;;;;;26.61;22.15;101950.03;5099033;28;846;-42
2021/03/30 12:12:23;;;;;;;;;;;;;;;27.04;21.66;101966.56;5099094;28;807;-36
2021/03/30 12:14:48;;;;;;;;;;;;;;;26.80;21.79;101959.00;5099497;28;739;-41
2021/03/30 12:17:13;;;;;;;;;;;;;;;26.90;21.73;101957.94;5098920;28;766;-35
2021/03/30 12:19:38;;;;;;;;;;;;;;;26.66;21.89;101955.78;5099251;28;859;-41
2021/03/30 12:22:04;;;;;;;;;;;;;;;27.13;22.00;101951.28;5099648;28;903;-41
2021/03/30 12:24:29;;;;;;;;;;;;;;;26.68;22.57;101961.03;5098425;28;807;-37
2021/03/30 12:26:54;;;;;;;;;;;;;;;26.86;22.17;101943.03;5098733;28;1909;-34
2021/03/30 12:29:20;;;;;;;;;;;;;;;26.93;22.36;101937.03;5098860;28;760;-41
2021/03/30 12:31:45;;;;;;;;;;;;;;;27.04;22.19;101950.34;5098828;28;766;-39
2021/03/30 12:34:12;;;;;;;;;;;;;;;27.01;22.40;101951.50;5098943;28;771;-39
2021/03/30 12:36:38;;;;;;;;;;;;;;;26.99;22.35;101956.16;5099536;28;1071;-40
2021/03/30 12:39:03;;;;;;;;;;;;;;;26.94;22.24;101944.13;5098202;28;846;-40
2021/03/30 12:41:30;;;;;;;;;;;;;;;27.18;22.10;101951.66;5098742;28;808;-39
2021/03/30 12:43:56;;;;;;;;;;;;;;;27.04;22.27;101957.59;5098412;28;1032;-38
2021/03/30 12:46:21;;;;;;;;;;;;;;;27.16;22.30;101947.44;5098699;28;759;-38
2021/03/30 12:48:47;;;;;;;;;;;;;;;27.26;22.21;101950.88;5098731;28;1910;-39
2021/03/30 12:51:13;;;;;;;;;;;;;;;27.44;21.99;101947.34;5098612;28;1024;-33
2021/03/30 12:53:38;;;;;;;;;;;;;;;27.26;22.00;101946.31;5098972;28;820;-40
2021/03/30 12:56:04;;;;;;;;;;;;;;;27.17;22.19;101935.59;5098664;28;770;-35
2021/03/30 12:58:29;;;;;;;;;;;;;;;27.23;22.21;101935.84;5098787;28;720;-40